Time;durP1;ratioP1;P1;durP2;ratioP2;P2;SDS_P1;SDS_P2;PMS_P1;PMS_P2;Temp;Humidity;BMP_temperature;BMP_pressure;BME280_temperature;BME280_humidity;BME280_pressure;Samples;Min_cycle;Max_cycle;Signal;HPM_P1;HPM_P2
2022/03/16 00:01:49;;;;;;;29.40;17.53;;;;;;;;;;5045218;28;20664;-54
2022/03/16 00:04:15;;;;;;;27.93;18.13;;;;;;;;;;5042657;28;20430;-53
2022/03/16 00:06:41;;;;;;;27.07;18.97;;;;;;;;;;5039459;28;20439;-53
2022/03/16 00:09:07;;;;;;;27.83;17.67;;;;;;;;;;5038298;28;20497;-53
2022/03/16 00:11:33;;;;;;;29.40;17.93;;;;;;;;;;5041173;28;20488;-51
2022/03/16 00:13:59;;;;;;;29.93;17.80;;;;;;;;;;5043681;28;20426;-53
2022/03/16 00:16:25;;;;;;;27.33;18.50;;;;;;;;;;5044625;28;20453;-53
2022/03/16 00:18:51;;;;;;;27.80;18.93;;;;;;;;;;5045838;28;20928;-52
2022/03/16 00:21:17;;;;;;;29.30;18.70;;;;;;;;;;5042977;28;20521;-52
2022/03/16 00:23:43;;;;;;;30.40;18.30;;;;;;;;;;5047993;28;20419;-53
2022/03/16 00:26:09;;;;;;;32.37;19.17;;;;;;;;;;5049434;28;20791;-52
2022/03/16 00:28:35;;;;;;;31.60;20.17;;;;;;;;;;5036094;28;20516;-53
2022/03/16 00:31:03;;;;;;;26.93;17.50;;;;;;;;;;5039077;28;20226;-53
2022/03/16 00:33:29;;;;;;;28.73;18.77;;;;;;;;;;5043077;28;20199;-52
2022/03/16 00:35:55;;;;;;;29.70;19.33;;;;;;;;;;5040013;28;20895;-52
2022/03/16 00:38:20;;;;;;;28.90;18.50;;;;;;;;;;5040429;28;20510;-52
2022/03/16 00:40:46;;;;;;;25.13;17.60;;;;;;;;;;5043637;28;21171;-52
2022/03/16 00:43:13;;;;;;;28.23;21.13;;;;;;;;;;5037451;28;20191;-53
2022/03/16 00:45:39;;;;;;;30.93;19.40;;;;;;;;;;5037822;28;20517;-51
2022/03/16 00:48:05;;;;;;;29.70;19.53;;;;;;;;;;5042930;28;20482;-51
2022/03/16 00:50:32;;;;;;;31.00;20.87;;;;;;;;;;5042295;28;20524;-52
2022/03/16 00:52:58;;;;;;;31.07;18.97;;;;;;;;;;5035029;28;20700;-51
2022/03/16 00:55:24;;;;;;;32.10;18.53;;;;;;;;;;5038170;28;20545;-52
2022/03/16 00:57:50;;;;;;;32.07;20.57;;;;;;;;;;5025888;28;20569;-52
2022/03/16 01:00:16;;;;;;;27.53;19.50;;;;;;;;;;5024698;28;20434;-53
2022/03/16 01:02:42;;;;;;;33.67;20.57;;;;;;;;;;5023456;28;20450;-52
2022/03/16 01:05:08;;;;;;;28.30;20.77;;;;;;;;;;5028785;28;20480;-52
2022/03/16 01:07:34;;;;;;;30.40;20.00;;;;;;;;;;5028584;28;20475;-52
2022/03/16 01:10:00;;;;;;;29.27;20.37;;;;;;;;;;5029397;28;20511;-52
2022/03/16 01:12:26;;;;;;;33.43;21.50;;;;;;;;;;5029149;28;20503;-52
2022/03/16 01:14:52;;;;;;;36.03;21.10;;;;;;;;;;5028314;28;20446;-53
2022/03/16 01:17:18;;;;;;;35.93;21.00;;;;;;;;;;5028500;28;20520;-52
2022/03/16 01:19:44;;;;;;;35.77;20.80;;;;;;;;;;5030358;28;20467;-52
2022/03/16 01:22:10;;;;;;;32.93;20.30;;;;;;;;;;5025864;28;20473;-51
2022/03/16 01:24:36;;;;;;;38.60;24.60;;;;;;;;;;5024055;28;20517;-51
2022/03/16 01:27:02;;;;;;;42.17;23.90;;;;;;;;;;5024406;28;20453;-52
2022/03/16 01:29:28;;;;;;;34.23;21.60;;;;;;;;;;5023356;28;20808;-52
2022/03/16 01:31:54;;;;;;;40.07;23.67;;;;;;;;;;5025761;28;20461;-52
2022/03/16 01:34:20;;;;;;;37.33;23.97;;;;;;;;;;5026267;28;23673;-52
2022/03/16 01:36:46;;;;;;;42.27;24.90;;;;;;;;;;5031281;28;20435;-52
2022/03/16 01:39:12;;;;;;;47.93;23.80;;;;;;;;;;5027888;28;20438;-51
2022/03/16 01:41:38;;;;;;;41.70;24.13;;;;;;;;;;5022952;28;20438;-53
2022/03/16 01:44:04;;;;;;;35.43;23.47;;;;;;;;;;5026280;28;20434;-52
2022/03/16 01:46:30;;;;;;;45.00;24.70;;;;;;;;;;5029982;28;20457;-52
2022/03/16 01:48:57;;;;;;;38.50;23.27;;;;;;;;;;5025569;28;20489;-51
2022/03/16 01:51:23;;;;;;;43.67;24.83;;;;;;;;;;5027790;28;20435;-53
2022/03/16 01:53:49;;;;;;;41.23;25.13;;;;;;;;;;5028752;28;20477;-54
2022/03/16 01:56:16;;;;;;;43.63;25.57;;;;;;;;;;5028257;28;20477;-52
2022/03/16 01:58:42;;;;;;;38.27;23.07;;;;;;;;;;5023379;28;21046;-52
2022/03/16 02:01:08;;;;;;;37.43;23.50;;;;;;;;;;5023007;28;20439;-54
2022/03/16 02:03:34;;;;;;;41.17;24.63;;;;;;;;;;5026454;28;20473;-52
2022/03/16 02:06:00;;;;;;;42.67;24.70;;;;;;;;;;5028161;28;20960;-51
2022/03/16 02:08:33;;;;;;;42.90;24.93;;;;;;;;;;5030551;28;20589;-51
2022/03/16 02:10:59;;;;;;;42.63;23.13;;;;;;;;;;5031211;28;20440;-52
2022/03/16 02:13:25;;;;;;;41.97;23.50;;;;;;;;;;5029949;28;20462;-52
2022/03/16 02:15:51;;;;;;;41.63;23.50;;;;;;;;;;5037578;28;20180;-53
2022/03/16 02:18:17;;;;;;;39.77;23.97;;;;;;;;;;5040513;28;20962;-52
2022/03/16 02:20:43;;;;;;;47.57;27.23;;;;;;;;;;5039270;28;20522;-53
2022/03/16 02:23:09;;;;;;;37.10;22.00;;;;;;;;;;5033318;28;20211;-52
2022/03/16 02:25:47;;;;;;;39.20;24.40;;;;;;;;;;5045657;28;20791;-53
2022/03/16 02:28:13;;;;;;;39.30;24.70;;;;;;;;;;5049466;28;20534;-51
2022/03/16 02:30:39;;;;;;;40.53;24.87;;;;;;;;;;5040904;28;20453;-53
2022/03/16 02:33:05;;;;;;;38.33;23.07;;;;;;;;;;5043846;28;20457;-51
2022/03/16 02:35:31;;;;;;;41.93;24.00;;;;;;;;;;5048290;28;20544;-53
2022/03/16 02:37:58;;;;;;;42.73;24.00;;;;;;;;;;5049027;28;20442;-52
2022/03/16 02:40:24;;;;;;;42.97;24.03;;;;;;;;;;5042582;28;20461;-52
2022/03/16 02:42:50;;;;;;;45.87;24.20;;;;;;;;;;5033265;28;20442;-53
2022/03/16 02:45:16;;;;;;;48.83;25.67;;;;;;;;;;5038378;28;20961;-52
2022/03/16 02:47:42;;;;;;;46.77;26.83;;;;;;;;;;5042864;28;20536;-53
2022/03/16 02:50:08;;;;;;;44.40;26.40;;;;;;;;;;5037162;28;20458;-52
2022/03/16 02:52:34;;;;;;;42.80;25.63;;;;;;;;;;5040353;28;20483;-52
2022/03/16 02:55:00;;;;;;;37.90;25.37;;;;;;;;;;5039237;28;20449;-52
2022/03/16 02:57:27;;;;;;;46.87;25.90;;;;;;;;;;5039314;28;20457;-52
2022/03/16 02:59:53;;;;;;;40.87;23.87;;;;;;;;;;5039847;28;20430;-52
2022/03/16 03:02:19;;;;;;;46.63;23.50;;;;;;;;;;5034559;28;20435;-51
2022/03/16 03:04:45;;;;;;;46.43;25.43;;;;;;;;;;5038268;28;20177;-54
2022/03/16 03:07:11;;;;;;;47.20;26.70;;;;;;;;;;5047556;28;20446;-53
2022/03/16 03:09:37;;;;;;;41.67;25.33;;;;;;;;;;5038133;28;20439;-53
2022/03/16 03:12:04;;;;;;;44.90;26.17;;;;;;;;;;5040013;28;21109;-52
2022/03/16 03:14:30;;;;;;;41.90;24.53;;;;;;;;;;5037235;28;20446;-53
2022/03/16 03:16:56;;;;;;;40.83;24.30;;;;;;;;;;5046879;28;20934;-52
2022/03/16 03:19:22;;;;;;;42.93;23.10;;;;;;;;;;5041906;28;20464;-54
2022/03/16 03:21:48;;;;;;;42.90;24.17;;;;;;;;;;5038953;28;20525;-54
2022/03/16 03:24:14;;;;;;;44.47;24.60;;;;;;;;;;5036335;28;20865;-52
2022/03/16 03:26:40;;;;;;;40.13;23.90;;;;;;;;;;5043911;28;20462;-53
2022/03/16 03:29:06;;;;;;;42.60;22.87;;;;;;;;;;5034154;28;20512;-53
2022/03/16 03:31:32;;;;;;;45.63;24.87;;;;;;;;;;5035220;28;20434;-53
2022/03/16 03:33:58;;;;;;;48.80;26.17;;;;;;;;;;5044332;28;20440;-54
2022/03/16 03:36:24;;;;;;;45.13;24.07;;;;;;;;;;5039618;28;20430;-53
2022/03/16 03:38:50;;;;;;;43.93;25.80;;;;;;;;;;5034851;28;20191;-51
2022/03/16 03:41:16;;;;;;;49.83;26.33;;;;;;;;;;5038226;28;20537;-52
2022/03/16 03:43:42;;;;;;;41.83;24.30;;;;;;;;;;5043784;28;20618;-52
2022/03/16 03:46:08;;;;;;;43.37;24.70;;;;;;;;;;5036381;28;20492;-51
2022/03/16 03:48:34;;;;;;;43.97;24.07;;;;;;;;;;5045411;28;20482;-51
2022/03/16 03:51:00;;;;;;;49.50;25.30;;;;;;;;;;5039699;28;20461;-51
2022/03/16 03:53:26;;;;;;;45.90;25.23;;;;;;;;;;5037262;28;20427;-54
2022/03/16 03:55:51;;;;;;;47.47;25.37;;;;;;;;;;5042560;28;20522;-53
2022/03/16 03:58:17;;;;;;;45.27;23.40;;;;;;;;;;5042156;28;20542;-54
2022/03/16 04:00:43;;;;;;;42.73;24.60;;;;;;;;;;5037560;28;20435;-52
2022/03/16 04:03:09;;;;;;;44.20;24.77;;;;;;;;;;5034092;28;20199;-52
2022/03/16 04:05:35;;;;;;;51.27;26.20;;;;;;;;;;5037626;28;20426;-52
2022/03/16 04:08:01;;;;;;;52.17;25.37;;;;;;;;;;5037704;28;20478;-53
2022/03/16 04:10:27;;;;;;;45.33;26.63;;;;;;;;;;5038782;28;20263;-53
2022/03/16 04:12:53;;;;;;;52.50;26.47;;;;;;;;;;5035782;28;20469;-51
2022/03/16 04:15:20;;;;;;;48.60;26.80;;;;;;;;;;5037170;28;20485;-52
2022/03/16 04:17:46;;;;;;;53.10;26.33;;;;;;;;;;5042594;28;20443;-50
2022/03/16 04:20:12;;;;;;;41.93;25.03;;;;;;;;;;5044254;28;20776;-53
2022/03/16 04:22:38;;;;;;;54.77;26.10;;;;;;;;;;5042339;28;20871;-53
2022/03/16 04:25:04;;;;;;;59.87;29.10;;;;;;;;;;5040218;28;21386;-53
2022/03/16 04:27:30;;;;;;;53.77;24.70;;;;;;;;;;5036274;28;20478;-54
2022/03/16 04:29:57;;;;;;;53.40;25.83;;;;;;;;;;5039586;28;20481;-53
2022/03/16 04:32:22;;;;;;;48.93;28.00;;;;;;;;;;5041210;28;20512;-54
2022/03/16 04:34:48;;;;;;;56.80;28.53;;;;;;;;;;5034141;28;20443;-53
2022/03/16 04:37:14;;;;;;;48.47;26.07;;;;;;;;;;5037286;28;20438;-52
2022/03/16 04:39:40;;;;;;;52.67;27.27;;;;;;;;;;5042947;28;20497;-54
2022/03/16 04:42:06;;;;;;;52.70;28.07;;;;;;;;;;5039760;28;20442;-53
2022/03/16 04:44:32;;;;;;;46.23;22.70;;;;;;;;;;5039045;28;20216;-52
2022/03/16 04:46:58;;;;;;;50.13;25.60;;;;;;;;;;5035671;28;20499;-53
2022/03/16 04:49:24;;;;;;;53.23;26.00;;;;;;;;;;5034045;28;20499;-52
2022/03/16 04:51:50;;;;;;;57.43;26.70;;;;;;;;;;5039966;28;20184;-52
2022/03/16 04:54:16;;;;;;;60.33;30.97;;;;;;;;;;5042873;28;20461;-53
2022/03/16 04:56:42;;;;;;;52.00;27.97;;;;;;;;;;5044108;28;20300;-52
2022/03/16 04:59:08;;;;;;;48.80;27.17;;;;;;;;;;5041850;28;20550;-53
2022/03/16 05:01:34;;;;;;;48.43;26.57;;;;;;;;;;5044637;28;20998;-52
2022/03/16 05:04:00;;;;;;;60.00;27.83;;;;;;;;;;5043059;28;20451;-53
2022/03/16 05:06:26;;;;;;;43.07;25.77;;;;;;;;;;5042032;28;20438;-54
2022/03/16 05:08:52;;;;;;;51.57;28.60;;;;;;;;;;5045580;28;20479;-53
2022/03/16 05:11:22;;;;;;;53.33;27.27;;;;;;;;;;5045152;28;20431;-53
2022/03/16 05:13:48;;;;;;;54.83;27.73;;;;;;;;;;5039866;28;20481;-54
2022/03/16 05:16:14;;;;;;;57.40;27.17;;;;;;;;;;5039173;28;20819;-53
2022/03/16 05:18:43;;;;;;;60.83;29.33;;;;;;;;;;5038698;28;20434;-54
2022/03/16 05:21:08;;;;;;;64.40;31.67;;;;;;;;;;5041268;28;20160;-56
2022/03/16 05:23:35;;;;;;;72.00;32.80;;;;;;;;;;5042692;28;20537;-55
2022/03/16 05:26:01;;;;;;;67.07;31.33;;;;;;;;;;5039776;28;20470;-55
2022/03/16 05:28:27;;;;;;;69.03;33.43;;;;;;;;;;5038387;28;21463;-55
2022/03/16 05:30:53;;;;;;;68.67;32.03;;;;;;;;;;5037983;28;20853;-54
2022/03/16 05:33:19;;;;;;;64.60;30.30;;;;;;;;;;5035747;28;21025;-55
2022/03/16 05:35:45;;;;;;;74.93;33.30;;;;;;;;;;5037112;28;20517;-55
2022/03/16 05:38:14;;;;;;;61.97;31.97;;;;;;;;;;5040363;28;20533;-55
2022/03/16 05:40:40;;;;;;;58.53;31.17;;;;;;;;;;5036669;28;20442;-55
2022/03/16 05:43:06;;;;;;;68.03;33.27;;;;;;;;;;5037072;28;20958;-55
2022/03/16 05:45:32;;;;;;;64.00;31.27;;;;;;;;;;5037813;28;20431;-55
2022/03/16 05:47:58;;;;;;;60.80;29.50;;;;;;;;;;5033651;28;20487;-55
2022/03/16 05:50:28;;;;;;;68.50;32.90;;;;;;;;;;5039503;28;20497;-55
2022/03/16 05:53:00;;;;;;;62.37;33.17;;;;;;;;;;5036314;28;20195;-55
2022/03/16 05:55:26;;;;;;;68.33;31.93;;;;;;;;;;5037663;28;20442;-55
2022/03/16 05:57:52;;;;;;;60.43;30.40;;;;;;;;;;5041251;28;20424;-55
2022/03/16 06:00:20;;;;;;;63.00;29.97;;;;;;;;;;5033108;28;20441;-56
2022/03/16 06:02:46;;;;;;;64.33;30.37;;;;;;;;;;5037172;28;20434;-55
2022/03/16 06:05:13;;;;;;;72.80;32.60;;;;;;;;;;5037362;28;20885;-55
2022/03/16 06:07:38;;;;;;;67.77;32.17;;;;;;;;;;5034499;28;20800;-55
2022/03/16 06:10:05;;;;;;;51.17;26.87;;;;;;;;;;5035958;28;20608;-55
2022/03/16 06:12:31;;;;;;;55.30;31.50;;;;;;;;;;5042527;28;20917;-55
2022/03/16 06:14:57;;;;;;;54.27;27.87;;;;;;;;;;5039917;28;20462;-56
2022/03/16 06:17:23;;;;;;;57.23;28.17;;;;;;;;;;5036488;28;20261;-55
2022/03/16 06:19:49;;;;;;;52.20;30.30;;;;;;;;;;5041771;28;20192;-54
2022/03/16 06:22:15;;;;;;;61.90;29.60;;;;;;;;;;5042343;28;20429;-54
2022/03/16 06:24:41;;;;;;;57.60;29.57;;;;;;;;;;5036494;28;20423;-54
2022/03/16 06:27:07;;;;;;;60.70;31.13;;;;;;;;;;5037758;28;20839;-55
2022/03/16 06:29:33;;;;;;;61.83;31.77;;;;;;;;;;5036211;28;21060;-54
2022/03/16 06:31:59;;;;;;;59.67;32.70;;;;;;;;;;5041069;28;20468;-55
2022/03/16 06:34:25;;;;;;;50.63;28.60;;;;;;;;;;5039702;28;20507;-54
2022/03/16 06:36:51;;;;;;;54.53;28.93;;;;;;;;;;5036277;28;20424;-56
2022/03/16 06:39:17;;;;;;;63.90;32.60;;;;;;;;;;5043562;28;20496;-55
2022/03/16 06:41:43;;;;;;;67.17;33.40;;;;;;;;;;5044111;28;20542;-54
2022/03/16 06:44:10;;;;;;;59.47;32.10;;;;;;;;;;5038909;28;20478;-54
2022/03/16 06:46:37;;;;;;;65.47;30.13;;;;;;;;;;5039020;28;20446;-54
2022/03/16 06:49:03;;;;;;;57.40;30.43;;;;;;;;;;5040140;28;20544;-54
2022/03/16 06:51:29;;;;;;;52.10;28.30;;;;;;;;;;5039108;28;20426;-55
2022/03/16 06:53:55;;;;;;;70.03;30.77;;;;;;;;;;5039450;28;20434;-55
2022/03/16 06:56:21;;;;;;;61.03;30.60;;;;;;;;;;5039145;28;20453;-55
2022/03/16 06:58:48;;;;;;;58.37;29.47;;;;;;;;;;5034735;28;20521;-56
2022/03/16 07:01:14;;;;;;;56.13;29.30;;;;;;;;;;5019433;28;20440;-54
2022/03/16 07:03:40;;;;;;;59.00;29.40;;;;;;;;;;5037748;28;20503;-54
2022/03/16 07:06:08;;;;;;;53.80;27.67;;;;;;;;;;5040447;28;20426;-54
2022/03/16 07:08:34;;;;;;;55.87;28.53;;;;;;;;;;5035976;28;20973;-54
2022/03/16 07:11:00;;;;;;;46.57;27.90;;;;;;;;;;5040268;28;20433;-54
2022/03/16 07:13:26;;;;;;;60.60;31.10;;;;;;;;;;5034144;28;20628;-55
2022/03/16 07:15:52;;;;;;;67.53;32.37;;;;;;;;;;5040121;28;20438;-56
2022/03/16 07:18:19;;;;;;;68.37;33.33;;;;;;;;;;5048899;28;20524;-54
2022/03/16 07:20:47;;;;;;;53.40;30.47;;;;;;;;;;5044535;28;20429;-55
2022/03/16 07:23:13;;;;;;;56.40;28.73;;;;;;;;;;5040618;28;20554;-55
2022/03/16 07:25:40;;;;;;;63.77;32.90;;;;;;;;;;5043660;28;20423;-54
2022/03/16 07:28:06;;;;;;;57.20;30.90;;;;;;;;;;5042384;28;20475;-55
2022/03/16 07:30:33;;;;;;;59.17;31.30;;;;;;;;;;5044301;28;20446;-55
2022/03/16 07:32:59;;;;;;;53.40;29.30;;;;;;;;;;5036615;28;20450;-53
2022/03/16 07:35:28;;;;;;;55.43;25.70;;;;;;;;;;5032559;28;21266;-54
2022/03/16 07:37:55;;;;;;;51.70;26.70;;;;;;;;;;5038096;28;20430;-55
2022/03/16 07:40:21;;;;;;;52.50;27.60;;;;;;;;;;5039948;28;20510;-57
2022/03/16 07:42:47;;;;;;;44.57;25.97;;;;;;;;;;5036563;28;20438;-55
2022/03/16 07:45:15;;;;;;;55.60;26.30;;;;;;;;;;5033490;28;20430;-55
2022/03/16 07:47:41;;;;;;;50.10;23.60;;;;;;;;;;5035895;28;20482;-55
2022/03/16 07:50:08;;;;;;;49.90;27.13;;;;;;;;;;5036728;28;20435;-55
2022/03/16 07:52:34;;;;;;;47.13;24.63;;;;;;;;;;5036564;28;20431;-55
2022/03/16 07:55:00;;;;;;;47.67;24.73;;;;;;;;;;5041231;28;20957;-56
2022/03/16 07:57:26;;;;;;;37.20;23.00;;;;;;;;;;5036842;28;20432;-55
2022/03/16 07:59:52;;;;;;;43.33;24.30;;;;;;;;;;5039548;28;20450;-56
2022/03/16 08:02:18;;;;;;;44.30;24.90;;;;;;;;;;5035445;28;20250;-55
2022/03/16 08:04:44;;;;;;;44.03;22.33;;;;;;;;;;5042389;28;20962;-54
2022/03/16 08:07:10;;;;;;;44.20;23.40;;;;;;;;;;5044335;28;20447;-55
2022/03/16 08:09:36;;;;;;;41.40;22.60;;;;;;;;;;5036531;28;20866;-56
2022/03/16 08:12:02;;;;;;;48.17;22.57;;;;;;;;;;5033480;28;20455;-55
2022/03/16 08:14:28;;;;;;;45.47;24.53;;;;;;;;;;5042264;28;20462;-55
2022/03/16 08:16:54;;;;;;;45.50;22.97;;;;;;;;;;5040048;28;20859;-55
2022/03/16 08:19:21;;;;;;;38.73;22.73;;;;;;;;;;5039548;28;20226;-55
2022/03/16 08:21:47;;;;;;;42.60;23.80;;;;;;;;;;5039922;28;20498;-55
2022/03/16 08:24:14;;;;;;;45.67;23.97;;;;;;;;;;5036304;28;20439;-55
2022/03/16 08:26:39;;;;;;;43.93;22.40;;;;;;;;;;5034702;28;20844;-56
2022/03/16 08:29:05;;;;;;;45.27;22.63;;;;;;;;;;5038666;28;20561;-56
2022/03/16 08:31:31;;;;;;;35.80;22.00;;;;;;;;;;5037455;28;20480;-55
2022/03/16 08:33:58;;;;;;;43.03;23.80;;;;;;;;;;5046055;28;20435;-56
2022/03/16 08:36:24;;;;;;;42.90;21.37;;;;;;;;;;5044722;28;20426;-54
2022/03/16 08:38:50;;;;;;;35.50;20.63;;;;;;;;;;5038881;28;20438;-55
2022/03/16 08:41:16;;;;;;;39.20;21.40;;;;;;;;;;5042936;28;20474;-55
2022/03/16 08:43:41;;;;;;;42.37;23.07;;;;;;;;;;5036900;28;21026;-55
2022/03/16 08:46:07;;;;;;;33.80;20.40;;;;;;;;;;5040810;28;20179;-55
2022/03/16 08:48:33;;;;;;;36.80;19.80;;;;;;;;;;5061669;28;20231;-55
2022/03/16 08:51:01;;;;;;;36.83;22.07;;;;;;;;;;5036827;28;20432;-55
2022/03/16 08:53:27;;;;;;;41.67;22.63;;;;;;;;;;5039309;28;20442;-55
2022/03/16 08:55:53;;;;;;;34.70;19.77;;;;;;;;;;5038569;28;20426;-55
2022/03/16 08:58:19;;;;;;;37.50;20.63;;;;;;;;;;5043014;28;20522;-55
2022/03/16 09:00:45;;;;;;;39.97;22.57;;;;;;;;;;5040442;28;20430;-55
2022/03/16 09:03:11;;;;;;;37.63;19.80;;;;;;;;;;5035922;28;20446;-55
2022/03/16 09:05:37;;;;;;;35.83;20.37;;;;;;;;;;5040313;28;20481;-55
2022/03/16 09:08:03;;;;;;;31.50;19.77;;;;;;;;;;5045242;28;20544;-56
2022/03/16 09:10:29;;;;;;;34.67;20.40;;;;;;;;;;5038945;28;20430;-56
2022/03/16 09:12:55;;;;;;;31.13;17.80;;;;;;;;;;5039798;28;20446;-56
2022/03/16 09:15:22;;;;;;;32.97;21.07;;;;;;;;;;5049566;28;20428;-55
2022/03/16 09:17:47;;;;;;;29.97;18.27;;;;;;;;;;5036969;28;20527;-55
2022/03/16 09:20:13;;;;;;;31.40;17.90;;;;;;;;;;5041157;28;20448;-55
2022/03/16 09:22:39;;;;;;;33.70;20.80;;;;;;;;;;5037263;28;20557;-55
2022/03/16 09:25:07;;;;;;;32.60;18.90;;;;;;;;;;5044483;28;20451;-56
2022/03/16 09:27:35;;;;;;;31.67;17.43;;;;;;;;;;5036107;28;20216;-55
2022/03/16 09:30:01;;;;;;;39.63;22.00;;;;;;;;;;5034671;28;21708;-55
2022/03/16 09:32:27;;;;;;;34.57;18.70;;;;;;;;;;5037734;28;20927;-54
2022/03/16 09:34:53;;;;;;;29.53;20.00;;;;;;;;;;5037516;28;20470;-54
2022/03/16 09:37:19;;;;;;;37.73;19.57;;;;;;;;;;5043403;28;20521;-56
2022/03/16 09:39:46;;;;;;;37.60;19.60;;;;;;;;;;5045690;28;20443;-56
2022/03/16 09:42:11;;;;;;;40.07;19.93;;;;;;;;;;5035145;28;20449;-54
2022/03/16 09:44:38;;;;;;;32.10;20.57;;;;;;;;;;5033568;28;20454;-54
2022/03/16 09:47:05;;;;;;;33.00;18.00;;;;;;;;;;5040242;28;21289;-55
2022/03/16 09:49:31;;;;;;;35.47;20.53;;;;;;;;;;5042709;28;20585;-55
2022/03/16 09:51:57;;;;;;;34.60;19.90;;;;;;;;;;5037872;28;20450;-54
2022/03/16 09:54:23;;;;;;;32.93;19.77;;;;;;;;;;5036892;28;20450;-55
2022/03/16 09:56:49;;;;;;;29.73;17.80;;;;;;;;;;5035104;28;20434;-54
2022/03/16 09:59:15;;;;;;;32.87;19.50;;;;;;;;;;5038622;28;20443;-54
2022/03/16 10:01:42;;;;;;;26.87;18.43;;;;;;;;;;5038428;28;20473;-54
2022/03/16 10:04:08;;;;;;;28.10;18.57;;;;;;;;;;5041087;28;20426;-55
2022/03/16 10:06:37;;;;;;;38.60;18.30;;;;;;;;;;5033263;28;20815;-54
2022/03/16 10:15:01;;;;;;;34.03;20.13;;;;;;;;;;5040447;28;20953;-54
2022/03/16 10:17:46;;;;;;;37.10;21.07;;;;;;;;;;5034287;28;20435;-55
2022/03/16 10:20:22;;;;;;;30.67;19.03;;;;;;;;;;5037951;28;20434;-55
2022/03/16 10:23:01;;;;;;;33.63;19.20;;;;;;;;;;5032961;28;20446;-54
2022/03/16 10:25:29;;;;;;;31.33;18.03;;;;;;;;;;5037978;28;21739;-56
2022/03/16 10:28:21;;;;;;;31.73;19.10;;;;;;;;;;5038717;28;20580;-55
2022/03/16 10:30:50;;;;;;;28.40;17.57;;;;;;;;;;5031034;28;20469;-54
2022/03/16 10:33:16;;;;;;;28.00;18.67;;;;;;;;;;5041271;28;20442;-54
2022/03/16 10:36:15;;;;;;;26.90;16.30;;;;;;;;;;5039196;28;20431;-54
2022/03/16 10:38:53;;;;;;;31.57;17.57;;;;;;;;;;5009075;28;20438;-54
2022/03/16 10:46:57;;;;;;;21.90;15.80;;;;;;;;;;5025669;28;20444;-55
2022/03/16 10:49:23;;;;;;;20.87;15.10;;;;;;;;;;5029702;28;20486;-54
2022/03/16 10:52:05;;;;;;;20.43;14.40;;;;;;;;;;5029047;28;20434;-54
2022/03/16 10:54:32;;;;;;;24.63;13.53;;;;;;;;;;5032074;28;20477;-55
2022/03/16 10:57:02;;;;;;;27.57;15.63;;;;;;;;;;5039503;28;21013;-55
2022/03/16 10:59:30;;;;;;;28.60;16.17;;;;;;;;;;5045565;28;20445;-55
2022/03/16 11:02:01;;;;;;;18.93;12.70;;;;;;;;;;5027168;28;20442;-55
2022/03/16 11:04:29;;;;;;;28.90;13.27;;;;;;;;;;5030182;28;20535;-55
2022/03/16 11:06:55;;;;;;;24.23;13.70;;;;;;;;;;5032147;28;20554;-54
2022/03/16 11:09:21;;;;;;;19.63;14.33;;;;;;;;;;5027421;28;20978;-54
2022/03/16 11:14:33;;;;;;;20.80;14.07;;;;;;;;;;5040341;28;20438;-55
2022/03/16 11:16:58;;;;;;;23.37;15.17;;;;;;;;;;5035733;28;20470;-56
2022/03/16 11:19:25;;;;;;;23.10;14.93;;;;;;;;;;5035676;28;20454;-55
2022/03/16 11:22:01;;;;;;;19.97;13.23;;;;;;;;;;5031154;28;20434;-55
2022/03/16 11:24:27;;;;;;;18.90;13.27;;;;;;;;;;5036531;28;20438;-55
2022/03/16 11:27:01;;;;;;;18.80;13.40;;;;;;;;;;5028943;28;20441;-55
2022/03/16 11:29:26;;;;;;;20.70;14.40;;;;;;;;;;5031684;28;20470;-58
2022/03/16 11:31:54;;;;;;;16.97;12.63;;;;;;;;;;5034290;28;21105;-55
2022/03/16 11:34:23;;;;;;;21.47;12.97;;;;;;;;;;5031872;28;20451;-55
2022/03/16 11:37:02;;;;;;;21.50;13.80;;;;;;;;;;5030295;28;20458;-55
2022/03/16 11:39:29;;;;;;;16.80;13.37;;;;;;;;;;5030705;28;20427;-55
2022/03/16 11:41:55;;;;;;;19.93;13.57;;;;;;;;;;5032541;28;20438;-55
2022/03/16 11:44:28;;;;;;;25.90;14.27;;;;;;;;;;5034062;28;20434;-55
2022/03/16 11:46:54;;;;;;;17.47;13.50;;;;;;;;;;5030768;28;20444;-55
2022/03/16 11:49:29;;;;;;;22.67;13.40;;;;;;;;;;5036192;28;20539;-55
2022/03/16 11:52:02;;;;;;;21.80;14.40;;;;;;;;;;5025831;28;20434;-55
2022/03/16 11:54:46;;;;;;;19.97;15.60;;;;;;;;;;5028341;28;20442;-55
2022/03/16 11:57:13;;;;;;;18.20;13.33;;;;;;;;;;5037200;28;20521;-56
2022/03/16 11:59:44;;;;;;;17.77;13.47;;;;;;;;;;5041644;28;20517;-55
2022/03/16 12:02:23;;;;;;;21.03;13.93;;;;;;;;;;5033930;28;20446;-56
2022/03/16 12:04:49;;;;;;;17.67;12.47;;;;;;;;;;5034731;28;20442;-56
2022/03/16 12:07:19;;;;;;;17.33;13.60;;;;;;;;;;5028914;28;20522;-55
2022/03/16 12:09:49;;;;;;;19.50;13.77;;;;;;;;;;5038454;28;20482;-55
2022/03/16 12:15:17;;;;;;;19.40;13.70;;;;;;;;;;5023144;28;21001;-55
2022/03/16 12:18:04;;;;;;;18.70;14.13;;;;;;;;;;5027009;28;20546;-55
2022/03/16 12:20:37;;;;;;;19.17;13.13;;;;;;;;;;5037162;28;20423;-55
2022/03/16 12:23:05;;;;;;;19.87;12.80;;;;;;;;;;5040477;28;20524;-54
2022/03/16 12:25:32;;;;;;;19.53;14.50;;;;;;;;;;5042197;28;20466;-55
2022/03/16 12:31:18;;;;;;;22.20;13.10;;;;;;;;;;4979617;28;20476;-54
2022/03/16 12:33:49;;;;;;;18.50;13.53;;;;;;;;;;5034458;28;20529;-55
2022/03/16 12:36:16;;;;;;;24.30;12.57;;;;;;;;;;5031426;28;20430;-55
2022/03/16 12:38:46;;;;;;;19.07;14.20;;;;;;;;;;5037714;28;20447;-55
2022/03/16 12:43:59;;;;;;;26.60;14.40;;;;;;;;;;5030506;28;20481;-57
2022/03/16 12:46:34;;;;;;;19.23;12.60;;;;;;;;;;5038917;28;20705;-55
2022/03/16 12:49:00;;;;;;;16.70;12.60;;;;;;;;;;5047455;28;20504;-55
2022/03/16 12:51:35;;;;;;;20.23;13.37;;;;;;;;;;5033052;28;20457;-55
2022/03/16 12:54:01;;;;;;;18.20;12.50;;;;;;;;;;5038829;28;20439;-57
2022/03/16 12:56:27;;;;;;;17.63;13.80;;;;;;;;;;5041138;28;20446;-55
2022/03/16 12:58:54;;;;;;;21.30;13.90;;;;;;;;;;5033002;28;20454;-57
2022/03/16 13:01:20;;;;;;;16.97;12.40;;;;;;;;;;5032402;28;21009;-56
2022/03/16 13:03:48;;;;;;;16.00;12.17;;;;;;;;;;5036168;28;20443;-55
2022/03/16 13:06:16;;;;;;;18.40;12.83;;;;;;;;;;5037547;28;20499;-56
2022/03/16 13:08:42;;;;;;;19.70;13.13;;;;;;;;;;5034749;28;20510;-55
2022/03/16 13:11:15;;;;;;;19.73;12.03;;;;;;;;;;5041486;28;20435;-55
2022/03/16 13:13:46;;;;;;;18.67;12.70;;;;;;;;;;5039223;28;20496;-56
2022/03/16 13:16:13;;;;;;;18.53;12.47;;;;;;;;;;5035172;28;20530;-56
2022/03/16 13:18:38;;;;;;;18.33;12.30;;;;;;;;;;5037360;28;20505;-55
2022/03/16 13:21:22;;;;;;;17.27;12.20;;;;;;;;;;5044651;28;20533;-55
2022/03/16 13:23:48;;;;;;;16.90;12.37;;;;;;;;;;5035249;28;20219;-55
2022/03/16 13:26:14;;;;;;;17.37;11.70;;;;;;;;;;5037042;28;20440;-55
2022/03/16 13:28:40;;;;;;;17.73;13.50;;;;;;;;;;5034072;28;20482;-55
2022/03/16 13:31:06;;;;;;;16.53;12.13;;;;;;;;;;5032555;28;20436;-55
2022/03/16 13:33:32;;;;;;;18.07;12.60;;;;;;;;;;5038839;28;20458;-56
2022/03/16 13:36:13;;;;;;;16.67;11.80;;;;;;;;;;5043264;28;20434;-55
2022/03/16 13:38:39;;;;;;;15.70;11.60;;;;;;;;;;5034743;28;20538;-55
2022/03/16 13:41:12;;;;;;;14.70;12.40;;;;;;;;;;5033947;28;21239;-54
2022/03/16 13:43:38;;;;;;;17.60;13.17;;;;;;;;;;5035494;28;20441;-55
2022/03/16 13:46:08;;;;;;;14.03;11.83;;;;;;;;;;5035677;28;20492;-55
2022/03/16 13:48:37;;;;;;;14.43;11.60;;;;;;;;;;5039788;28;22827;-54
2022/03/16 13:51:06;;;;;;;16.30;12.27;;;;;;;;;;5035048;28;20432;-53
2022/03/16 13:53:47;;;;;;;15.40;10.80;;;;;;;;;;5039617;28;20435;-56
2022/03/16 13:56:19;;;;;;;14.73;11.10;;;;;;;;;;5038403;28;20474;-55
2022/03/16 13:58:47;;;;;;;15.30;12.07;;;;;;;;;;5033897;28;20422;-55
2022/03/16 14:01:23;;;;;;;16.40;12.57;;;;;;;;;;5034268;28;20462;-55
2022/03/16 14:04:01;;;;;;;16.40;11.00;;;;;;;;;;5035607;28;21985;-55
2022/03/16 14:06:35;;;;;;;17.30;11.30;;;;;;;;;;5034652;28;20434;-55
2022/03/16 14:09:02;;;;;;;17.77;12.60;;;;;;;;;;5035864;28;20476;-56
2022/03/16 14:11:31;;;;;;;17.50;12.20;;;;;;;;;;5033668;28;20435;-55
2022/03/16 14:13:57;;;;;;;17.23;11.90;;;;;;;;;;5035660;28;21188;-56
2022/03/16 14:16:23;;;;;;;17.53;12.70;;;;;;;;;;5034339;28;20522;-56
2022/03/16 14:18:49;;;;;;;18.20;11.40;;;;;;;;;;5028426;28;20450;-54
2022/03/16 14:21:15;;;;;;;14.03;11.03;;;;;;;;;;5036851;28;24750;-55
2022/03/16 14:23:42;;;;;;;18.03;11.10;;;;;;;;;;5034813;28;20430;-54
2022/03/16 14:26:08;;;;;;;14.37;10.50;;;;;;;;;;5039226;28;20755;-54
2022/03/16 14:28:34;;;;;;;15.30;10.87;;;;;;;;;;5041906;28;21082;-54
2022/03/16 14:31:01;;;;;;;16.90;12.07;;;;;;;;;;5040145;28;20451;-55
2022/03/16 14:33:30;;;;;;;15.63;10.83;;;;;;;;;;5043436;28;20442;-55
2022/03/16 14:35:57;;;;;;;14.27;11.10;;;;;;;;;;5041458;28;21164;-55
2022/03/16 14:38:23;;;;;;;16.13;11.23;;;;;;;;;;5038289;28;20488;-55
2022/03/16 14:40:55;;;;;;;14.30;10.80;;;;;;;;;;5032572;28;20437;-55